WARNING - Change wsUserSettings.php: $SITE["topfolder"] from : public_html./ to: ./
Iedere zaterdag na 11 uur op radio zuidwest.

Onweer radar Meer informatie blitzortung!


Regen radar Meer informatie rain snow radar


Bezoek onze andere website:

Template documentation
and downloads


U vindt ons ook hier:

Het Weer Aktueel

UK Metoffice

European Weather Network

WeatherCloud

Weather Underground

Austria Weather Network

AWEKAS

Citizen Weather Observer Program (CWOP)

HAMweather, WeatherForYou, PWS Weather

Wetterpage 24

Roosendaal nieuws

VWKWEB

RadioZuidWestFM



METAR rapporten vliegvelden

   
EHWO - Bergen op Zoom
Gewijzigd: 19-04-2024 18:16
Regen, Grotendeels bewolkt  
Regen, Grotendeels bewolkt  
   Wind: NW 22.2 km/h<br />Gust to 22.2 km/h
Wind: NW 22.2 km/h
Gust to 22.2 km/h
Temperatuur: 8°C
Voelt als: 4°C
Dauwpunt: 4°C
Vochtigheid: 76%
Barometer: 1013 hPa
Bewolking: Grotendeels bewolkt
Zicht: 5 km
Bewolking: Licht bewolkt 1700 ft,
Grotendeels bewolkt 2100 ft,
Grotendeels bewolkt 2600 ft
EHWO 191616Z AUTO 32012G27KT 250V020 4500 RA FEW017 BKN021 BKN026 08/04 Q1013 GRN
EHWO - Woensdrecht
Gewijzigd: 19-04-2024 18:16
Regen, Grotendeels bewolkt  
Regen, Grotendeels bewolkt  
   Wind: NW 22.2 km/h<br />Gust to 22.2 km/h
Wind: NW 22.2 km/h
Gust to 22.2 km/h
Temperatuur: 8°C
Voelt als: 4°C
Dauwpunt: 4°C
Vochtigheid: 76%
Barometer: 1013 hPa
Bewolking: Grotendeels bewolkt
Zicht: 5 km
Bewolking: Licht bewolkt 1700 ft,
Grotendeels bewolkt 2100 ft,
Grotendeels bewolkt 2600 ft
EHWO 191616Z AUTO 32012G27KT 250V020 4500 RA FEW017 BKN021 BKN026 08/04 Q1013 GRN
EHWO - Steenbergen
Gewijzigd: 19-04-2024 18:16
Regen, Grotendeels bewolkt  
Regen, Grotendeels bewolkt  
   Wind: NW 22.2 km/h<br />Gust to 22.2 km/h
Wind: NW 22.2 km/h
Gust to 22.2 km/h
Temperatuur: 8°C
Voelt als: 4°C
Dauwpunt: 4°C
Vochtigheid: 76%
Barometer: 1013 hPa
Bewolking: Grotendeels bewolkt
Zicht: 5 km
Bewolking: Licht bewolkt 1700 ft,
Grotendeels bewolkt 2100 ft,
Grotendeels bewolkt 2600 ft
EHWO 191616Z AUTO 32012G27KT 250V020 4500 RA FEW017 BKN021 BKN026 08/04 Q1013 GRN
EHWO - Oud-Gastel
Gewijzigd: 19-04-2024 18:16
Regen, Grotendeels bewolkt  
Regen, Grotendeels bewolkt  
   Wind: NW 22.2 km/h<br />Gust to 22.2 km/h
Wind: NW 22.2 km/h
Gust to 22.2 km/h
Temperatuur: 8°C
Voelt als: 4°C
Dauwpunt: 4°C
Vochtigheid: 76%
Barometer: 1013 hPa
Bewolking: Grotendeels bewolkt
Zicht: 5 km
Bewolking: Licht bewolkt 1700 ft,
Grotendeels bewolkt 2100 ft,
Grotendeels bewolkt 2600 ft
EHWO 191616Z AUTO 32012G27KT 250V020 4500 RA FEW017 BKN021 BKN026 08/04 Q1013 GRN
EHWO - Oudenbosch
Gewijzigd: 19-04-2024 18:16
Regen, Grotendeels bewolkt  
Regen, Grotendeels bewolkt  
   Wind: NW 22.2 km/h<br />Gust to 22.2 km/h
Wind: NW 22.2 km/h
Gust to 22.2 km/h
Temperatuur: 8°C
Voelt als: 4°C
Dauwpunt: 4°C
Vochtigheid: 76%
Barometer: 1013 hPa
Bewolking: Grotendeels bewolkt
Zicht: 5 km
Bewolking: Licht bewolkt 1700 ft,
Grotendeels bewolkt 2100 ft,
Grotendeels bewolkt 2600 ft
EHWO 191616Z AUTO 32012G27KT 250V020 4500 RA FEW017 BKN021 BKN026 08/04 Q1013 GRN
EHWO - Rucphen
Gewijzigd: 19-04-2024 18:16
Regen, Grotendeels bewolkt  
Regen, Grotendeels bewolkt  
   Wind: NW 22.2 km/h<br />Gust to 22.2 km/h
Wind: NW 22.2 km/h
Gust to 22.2 km/h
Temperatuur: 8°C
Voelt als: 4°C
Dauwpunt: 4°C
Vochtigheid: 76%
Barometer: 1013 hPa
Bewolking: Grotendeels bewolkt
Zicht: 5 km
Bewolking: Licht bewolkt 1700 ft,
Grotendeels bewolkt 2100 ft,
Grotendeels bewolkt 2600 ft
EHWO 191616Z AUTO 32012G27KT 250V020 4500 RA FEW017 BKN021 BKN026 08/04 Q1013 GRN
EHWO - Bergen op Zoom
Gewijzigd: 19-04-2024 18:16
Regen, Grotendeels bewolkt  
Regen, Grotendeels bewolkt  
   Wind: NW 22.2 km/h<br />Gust to 22.2 km/h
Wind: NW 22.2 km/h
Gust to 22.2 km/h
Temperatuur: 8°C
Voelt als: 4°C
Dauwpunt: 4°C
Vochtigheid: 76%
Barometer: 1013 hPa
Bewolking: Grotendeels bewolkt
Zicht: 5 km
Bewolking: Licht bewolkt 1700 ft,
Grotendeels bewolkt 2100 ft,
Grotendeels bewolkt 2600 ft
EHWO 191616Z AUTO 32012G27KT 250V020 4500 RA FEW017 BKN021 BKN026 08/04 Q1013 GRN
EHWO - Fijnaart
Gewijzigd: 19-04-2024 18:16
Regen, Grotendeels bewolkt  
Regen, Grotendeels bewolkt  
   Wind: NW 22.2 km/h<br />Gust to 22.2 km/h
Wind: NW 22.2 km/h
Gust to 22.2 km/h
Temperatuur: 8°C
Voelt als: 4°C
Dauwpunt: 4°C
Vochtigheid: 76%
Barometer: 1013 hPa
Bewolking: Grotendeels bewolkt
Zicht: 5 km
Bewolking: Licht bewolkt 1700 ft,
Grotendeels bewolkt 2100 ft,
Grotendeels bewolkt 2600 ft
EHWO 191616Z AUTO 32012G27KT 250V020 4500 RA FEW017 BKN021 BKN026 08/04 Q1013 GRN
EHWO - Ossendrecht
Gewijzigd: 19-04-2024 18:16
Regen, Grotendeels bewolkt  
Regen, Grotendeels bewolkt  
   Wind: NW 22.2 km/h<br />Gust to 22.2 km/h
Wind: NW 22.2 km/h
Gust to 22.2 km/h
Temperatuur: 8°C
Voelt als: 4°C
Dauwpunt: 4°C
Vochtigheid: 76%
Barometer: 1013 hPa
Bewolking: Grotendeels bewolkt
Zicht: 5 km
Bewolking: Licht bewolkt 1700 ft,
Grotendeels bewolkt 2100 ft,
Grotendeels bewolkt 2600 ft
EHWO 191616Z AUTO 32012G27KT 250V020 4500 RA FEW017 BKN021 BKN026 08/04 Q1013 GRN

Script ontwikkeld door  Saratoga-weather.org Aangepast voor de template door  Weerstation Leuven

Apparatuur in gebruik:

Weerstation
Davis VP2

Weerprogramma
Weather Display

Weercomputer
Shuttle

Webleverancier
WeservIT

Davis VP2

Weather Display

Shuttle

WeservIT